Portada
METAR-TAF:

METAR-TAF

Aeroports :

Saint-Nazaire, França

latitud: 47-19N, longitud: 002-10W, altitud: 3 m

Observació

L'informe es va fer fa 28 minuts, a les 19:30 UTC
Vent 13 kt del Est/Nord-Est
Temperatura 5°C
Humitat 60%
Pressió 1028 hPa
Visibilitat 10 km o més
Cel cobert a una alçada de 3700 ft

METAR: LFRZ 051930Z AUTO 06013KT 9999 OVC037 05/M02 Q1028 NOSIG

Hora: 20:58 (19:58 UTC)

Pronòstic

L'informe es va fer fa 2 hores i 58 minuts, a les 17:00 UTC
Pronòstic vàlid del 05 a les 18 UTC al 06 a les 18 UTC
Vent 12 kt del Nord-Est
Visibilitat 10 km o més
Cel ennuvolat a una alçada de 3500 ft
Evolucionant progressivament
l' 05 a les 18 UTC al 05 a les 21 UTC
Visibilitat 10 km o més
sense núvols per sota de 1500 mi sense presència de cumulonimbus.

TAF: LFRZ 051700Z 0518/0618 04012KT 9999 BKN035 BECMG 0518/0521 CAVOK

Observacions i pronòstics meteorològics de més de 4000 aeroports (METAR i TAF).

Les estacions disponibles són els punts grocs i vermells al mapa.

Posi el ratolí al punt desitjat per veure el nom de l'estació.

Feu clic per veure les observacions i els pronòstics meteorològics.

Per canviar el mapa: feu clic els botons verds amb una creu de color negre per apropar; al botó verd amb un guió per allunyar la imatge; o en les fletxes verdes per a mapes adjacents.


METAR-TAF: